सभी
Edenhope Airport (Edenhope Victoria) YEDE मौसम
There is no TAF data available at YEDE. Showing TAF data for YNRC (30 mi W).
NAC Terminal Area Forecast (no data for YEDE)
| Here is the undecoded forecast: 2026/05/04 04:12 YNRC 040412Z 0404/0408 25016G26KT 9999 -SHRA SCT015 BKN025 FM040700 25014KT 9999 -SHRA SCT015 BKN025 INTER 0404/0408 25026G36KT 3000 SHRA BKN012 FEW025TCU PROB30 INTER 0404/0408 VRB20G35KT 2000 TSRA BKN008 FEW025CB RMK T 13 14 Q 1010 1012 |
There is no METAR data available at YEDE. Showing METAR data for YNRC (30 mi W).
Recent NAC METAR history (no data for YEDE)
| Date | Time (ACST) | Flight Rules | Wind Dir. | Speed | Type | Height AGL (ft) | Visibility | Temp (°C) | Temp (°F) | Dew Point (°C) | Dew Point (°F) | Rel. Humid. | Pressure | Density Altitude | Remarks |
|---|---|---|---|---|---|---|---|---|---|---|---|---|---|---|---|
| 04-मई | 15:30 | n/a | 270° | 17 kt | Missing | 16° | 60° | 13° | 55° | 82% | 1011 mb | 354 ft | |||
| 04-मई | 14:37 | n/a | 250° | 20 kt | Missing | 14° | 57° | 12° | 53° | 88% | 1010 mb | 144 ft | Wind gusting to 30 KT | ||
| 04-मई | 13:30 | n/a | 240° | 26 kt | Missing | 13° | 55° | 12° | 53° | 94% | 1010 mb | 24 ft | Wind gusting to 36 KT | ||
| 04-मई | 12:30 | n/a | 270° | 17 kt | Missing | 14° | 57° | 13° | 55° | 94% | 1009 mb | 173 ft | |||
| 04-मई | 11:30 | n/a | 290° | 15 kt | Missing | 15° | 59° | 13° | 55° | 88% | 1009 mb | 293 ft | |||
| 04-मई | 10:30 | n/a | 290° | 18 kt | Missing | 15° | 59° | 12° | 53° | 82% | 1009 mb | 293 ft | |||
| 04-मई | 09:30 | n/a | 320° | 14 kt | Missing | 15° | 59° | 14° | 57° | 94% | 1008 mb | 323 ft | |||
| 04-मई | 08:30 | n/a | 330° | 12 kt | Missing | 13° | 55° | 13° | 55° | 100% | 1008 mb | 83 ft | |||
| 04-मई | 07:30 | n/a | 340° | 15 kt | Missing | 13° | 55° | 12° | 53° | 94% | 1007 mb | 112 ft | |||
| 04-मई | 06:30 | n/a | 340° | 13 kt | Missing | 12° | 53° | 12° | 53° | 100% | 1007 mb | -8 ft | |||
| 04-मई | 05:30 | n/a | 340° | 14 kt | Missing | 12° | 53° | 11° | 51° | 94% | 1007 mb | -8 ft | |||
| 04-मई | 04:30 | n/a | 340° | 15 kt | Missing | 12° | 53° | 11° | 51° | 94% | 1007 mb | -8 ft | |||
| 04-मई | 03:30 | n/a | 350° | 14 kt | Missing | 13° | 55° | 10° | 50° | 82% | 1007 mb | 112 ft | |||
| 04-मई | 02:30 | n/a | 350° | 14 kt | Missing | 13° | 55° | 10° | 50° | 82% | 1007 mb | 112 ft | |||
| 04-मई | 01:30 | n/a | 350° | 15 kt | Missing | 13° | 55° | 10° | 50° | 82% | 1008 mb | 83 ft | |||
| 04-मई | 00:30 | n/a | 350° | 13 kt | Missing | 13° | 55° | 10° | 50° | 82% | 1008 mb | 83 ft | |||
| 03-मई | 23:30 | n/a | 350° | 13 kt | Missing | 13° | 55° | 10° | 50° | 82% | 1008 mb | 83 ft | |||
| 03-मई | 22:30 | n/a | 350° | 13 kt | Missing | 13° | 55° | 10° | 50° | 82% | 1009 mb | 53 ft | |||
| 03-मई | 21:30 | n/a | 360° | 12 kt | Missing | 14° | 57° | 10° | 50° | 77% | 1009 mb | 173 ft | |||
| 03-मई | 20:30 | n/a | 360° | 13 kt | Missing | 14° | 57° | 10° | 50° | 77% | 1009 mb | 173 ft | |||
| 03-मई | 19:30 | n/a | 350° | 13 kt | Missing | 14° | 57° | 11° | 51° | 82% | 1009 mb | 173 ft | |||
| 03-मई | 18:30 | n/a | 360° | 10 kt | Missing | 13° | 55° | 11° | 51° | 88% | 1009 mb | 53 ft | |||
| 03-मई | 17:30 | n/a | 360° | 8 kt | Missing | 13° | 55° | 12° | 53° | 94% | 1009 mb | 53 ft | |||
| 03-मई | 16:39 | n/a | 320° | 15 kt | Missing | 13° | 55° | 12° | 53° | 94% | 1009 mb | 53 ft | Wind gusting to 25 KT |
लॉगिन
| Your browser is unsupported. अपना ब्राऊजर अपग्रेड करें |
